sensor_id;sensor_type;location;lat;lon;timestamp;temperature;humidity
67598;DHT22;62026;39.230;9.122;2023-07-13T00:00:44;28.70;65.20
67598;DHT22;62026;39.230;9.122;2023-07-13T00:03:10;28.60;65.20
67598;DHT22;62026;39.230;9.122;2023-07-13T00:05:39;28.60;65.40
67598;DHT22;62026;39.230;9.122;2023-07-13T00:08:07;28.60;65.70
67598;DHT22;62026;39.230;9.122;2023-07-13T00:10:34;28.60;65.70
67598;DHT22;62026;39.230;9.122;2023-07-13T00:13:04;28.60;65.80
67598;DHT22;62026;39.230;9.122;2023-07-13T00:15:30;28.60;65.80
67598;DHT22;62026;39.230;9.122;2023-07-13T00:17:57;28.60;66.00
67598;DHT22;62026;39.230;9.122;2023-07-13T00:20:24;28.60;66.00
67598;DHT22;62026;39.230;9.122;2023-07-13T00:22:52;28.50;66.30
67598;DHT22;62026;39.230;9.122;2023-07-13T00:25:20;28.50;66.50
67598;DHT22;62026;39.230;9.122;2023-07-13T00:27:51;28.50;66.80
67598;DHT22;62026;39.230;9.122;2023-07-13T00:30:17;28.50;67.10
67598;DHT22;62026;39.230;9.122;2023-07-13T00:32:44;28.50;67.10
67598;DHT22;62026;39.230;9.122;2023-07-13T00:35:10;28.50;67.30
67598;DHT22;62026;39.230;9.122;2023-07-13T00:37:38;28.40;67.60
67598;DHT22;62026;39.230;9.122;2023-07-13T00:40:05;28.40;67.80
67598;DHT22;62026;39.230;9.122;2023-07-13T00:42:32;28.40;68.00
67598;DHT22;62026;39.230;9.122;2023-07-13T00:47:55;28.40;68.20
67598;DHT22;62026;39.230;9.122;2023-07-13T00:50:23;28.40;68.80
67598;DHT22;62026;39.230;9.122;2023-07-13T00:52:54;28.40;68.80
67598;DHT22;62026;39.230;9.122;2023-07-13T00:55:22;28.40;68.80
67598;DHT22;62026;39.230;9.122;2023-07-13T00:57:48;28.30;68.50
67598;DHT22;62026;39.230;9.122;2023-07-13T01:00:14;28.30;67.90
67598;DHT22;62026;39.230;9.122;2023-07-13T01:02:45;28.30;67.80
67598;DHT22;62026;39.230;9.122;2023-07-13T01:05:16;28.30;67.50
67598;DHT22;62026;39.230;9.122;2023-07-13T01:07:45;28.30;67.50
67598;DHT22;62026;39.230;9.122;2023-07-13T01:10:14;28.40;67.30
67598;DHT22;62026;39.230;9.122;2023-07-13T01:12:40;28.40;67.00
67598;DHT22;62026;39.230;9.122;2023-07-13T01:15:36;28.40;67.10
67598;DHT22;62026;39.230;9.122;2023-07-13T01:18:06;28.30;67.30
67598;DHT22;62026;39.230;9.122;2023-07-13T01:20:36;28.20;67.40
67598;DHT22;62026;39.230;9.122;2023-07-13T01:23:07;28.20;67.00
67598;DHT22;62026;39.230;9.122;2023-07-13T01:25:37;28.20;66.50
67598;DHT22;62026;39.230;9.122;2023-07-13T01:28:04;28.30;66.40
67598;DHT22;62026;39.230;9.122;2023-07-13T01:30:32;28.30;66.40
67598;DHT22;62026;39.230;9.122;2023-07-13T01:32:58;28.30;65.70
67598;DHT22;62026;39.230;9.122;2023-07-13T01:35:25;28.30;66.20
67598;DHT22;62026;39.230;9.122;2023-07-13T01:37:53;28.30;65.70
67598;DHT22;62026;39.230;9.122;2023-07-13T01:40:20;28.40;65.60
67598;DHT22;62026;39.230;9.122;2023-07-13T01:42:46;28.40;65.60
67598;DHT22;62026;39.230;9.122;2023-07-13T01:45:12;28.40;65.70
67598;DHT22;62026;39.230;9.122;2023-07-13T01:47:38;28.40;65.40
67598;DHT22;62026;39.230;9.122;2023-07-13T01:50:05;28.40;65.60
67598;DHT22;62026;39.230;9.122;2023-07-13T01:52:31;28.40;65.20
67598;DHT22;62026;39.230;9.122;2023-07-13T01:54:57;28.40;65.30
67598;DHT22;62026;39.230;9.122;2023-07-13T01:57:23;28.40;65.20
67598;DHT22;62026;39.230;9.122;2023-07-13T01:59:49;28.40;65.00
67598;DHT22;62026;39.230;9.122;2023-07-13T02:02:16;28.40;64.60
67598;DHT22;62026;39.230;9.122;2023-07-13T02:04:42;28.50;64.80
67598;DHT22;62026;39.230;9.122;2023-07-13T02:07:08;28.40;64.50
67598;DHT22;62026;39.230;9.122;2023-07-13T02:09:35;28.50;64.80
67598;DHT22;62026;39.230;9.122;2023-07-13T02:12:01;28.50;64.90
67598;DHT22;62026;39.230;9.122;2023-07-13T02:14:32;28.50;64.90
67598;DHT22;62026;39.230;9.122;2023-07-13T02:16:58;28.50;65.00
67598;DHT22;62026;39.230;9.122;2023-07-13T02:19:24;28.40;65.10
67598;DHT22;62026;39.230;9.122;2023-07-13T02:21:50;28.40;65.20
67598;DHT22;62026;39.230;9.122;2023-07-13T02:24:16;28.40;65.30
67598;DHT22;62026;39.230;9.122;2023-07-13T02:26:45;28.40;65.30
67598;DHT22;62026;39.230;9.122;2023-07-13T02:29:11;28.40;65.40
67598;DHT22;62026;39.230;9.122;2023-07-13T02:31:37;28.40;65.40
67598;DHT22;62026;39.230;9.122;2023-07-13T02:34:03;28.40;65.40
67598;DHT22;62026;39.230;9.122;2023-07-13T02:36:30;28.40;65.30
67598;DHT22;62026;39.230;9.122;2023-07-13T02:39:02;28.40;65.20
67598;DHT22;62026;39.230;9.122;2023-07-13T02:41:29;28.40;65.20
67598;DHT22;62026;39.230;9.122;2023-07-13T02:43:57;28.40;65.40
67598;DHT22;62026;39.230;9.122;2023-07-13T02:46:33;28.30;65.30
67598;DHT22;62026;39.230;9.122;2023-07-13T02:49:00;28.20;65.40
67598;DHT22;62026;39.230;9.122;2023-07-13T02:51:26;28.20;65.30
67598;DHT22;62026;39.230;9.122;2023-07-13T02:53:53;28.10;65.30
67598;DHT22;62026;39.230;9.122;2023-07-13T02:56:22;28.20;65.30
67598;DHT22;62026;39.230;9.122;2023-07-13T02:58:51;28.20;65.20
67598;DHT22;62026;39.230;9.122;2023-07-13T03:01:17;28.20;65.20
67598;DHT22;62026;39.230;9.122;2023-07-13T03:03:45;28.10;65.30
67598;DHT22;62026;39.230;9.122;2023-07-13T03:06:13;28.10;65.30
67598;DHT22;62026;39.230;9.122;2023-07-13T03:08:46;28.10;65.50
67598;DHT22;62026;39.230;9.122;2023-07-13T03:11:19;28.10;65.50
67598;DHT22;62026;39.230;9.122;2023-07-13T03:14:04;28.20;65.40
67598;DHT22;62026;39.230;9.122;2023-07-13T03:16:34;28.20;65.40
67598;DHT22;62026;39.230;9.122;2023-07-13T03:19:00;28.20;65.50
67598;DHT22;62026;39.230;9.122;2023-07-13T03:21:26;28.20;65.50
67598;DHT22;62026;39.230;9.122;2023-07-13T03:23:53;28.10;65.70
67598;DHT22;62026;39.230;9.122;2023-07-13T03:26:20;28.20;65.90
67598;DHT22;62026;39.230;9.122;2023-07-13T03:28:47;28.10;66.10
67598;DHT22;62026;39.230;9.122;2023-07-13T03:31:24;28.10;66.30
67598;DHT22;62026;39.230;9.122;2023-07-13T03:33:56;28.10;66.40
67598;DHT22;62026;39.230;9.122;2023-07-13T03:36:26;28.10;66.40
67598;DHT22;62026;39.230;9.122;2023-07-13T03:38:58;28.10;66.40
67598;DHT22;62026;39.230;9.122;2023-07-13T03:41:34;28.10;66.60
67598;DHT22;62026;39.230;9.122;2023-07-13T03:44:00;28.10;66.60
67598;DHT22;62026;39.230;9.122;2023-07-13T03:46:27;28.10;66.60
67598;DHT22;62026;39.230;9.122;2023-07-13T03:48:53;28.10;67.00
67598;DHT22;62026;39.230;9.122;2023-07-13T03:51:20;28.10;67.50
67598;DHT22;62026;39.230;9.122;2023-07-13T03:53:47;28.10;67.60
67598;DHT22;62026;39.230;9.122;2023-07-13T03:56:16;28.10;67.80
67598;DHT22;62026;39.230;9.122;2023-07-13T03:58:46;28.10;68.20
67598;DHT22;62026;39.230;9.122;2023-07-13T04:01:20;28.10;68.30
67598;DHT22;62026;39.230;9.122;2023-07-13T04:03:48;28.10;68.40
67598;DHT22;62026;39.230;9.122;2023-07-13T04:06:27;28.10;68.60
67598;DHT22;62026;39.230;9.122;2023-07-13T04:08:57;28.00;68.70
67598;DHT22;62026;39.230;9.122;2023-07-13T04:11:28;28.00;68.60
67598;DHT22;62026;39.230;9.122;2023-07-13T04:13:57;28.10;68.50
67598;DHT22;62026;39.230;9.122;2023-07-13T04:16:23;28.00;68.50
67598;DHT22;62026;39.230;9.122;2023-07-13T04:18:51;28.00;68.70
67598;DHT22;62026;39.230;9.122;2023-07-13T04:21:21;28.00;68.80
67598;DHT22;62026;39.230;9.122;2023-07-13T04:23:47;28.00;69.10
67598;DHT22;62026;39.230;9.122;2023-07-13T04:26:13;28.00;69.00
67598;DHT22;62026;39.230;9.122;2023-07-13T04:28:39;28.00;69.20
67598;DHT22;62026;39.230;9.122;2023-07-13T04:31:05;28.00;69.30
67598;DHT22;62026;39.230;9.122;2023-07-13T04:33:31;28.00;69.30
67598;DHT22;62026;39.230;9.122;2023-07-13T04:35:57;28.00;69.50
67598;DHT22;62026;39.230;9.122;2023-07-13T04:38:26;28.00;69.20
67598;DHT22;62026;39.230;9.122;2023-07-13T04:40:59;27.90;69.10
67598;DHT22;62026;39.230;9.122;2023-07-13T04:43:27;27.90;68.80
67598;DHT22;62026;39.230;9.122;2023-07-13T04:45:54;27.90;68.30
67598;DHT22;62026;39.230;9.122;2023-07-13T04:48:21;27.90;68.00
67598;DHT22;62026;39.230;9.122;2023-07-13T04:50:54;27.90;67.90
67598;DHT22;62026;39.230;9.122;2023-07-13T04:53:21;28.00;67.80
67598;DHT22;62026;39.230;9.122;2023-07-13T04:55:47;27.90;67.70
67598;DHT22;62026;39.230;9.122;2023-07-13T04:58:13;27.90;67.80
67598;DHT22;62026;39.230;9.122;2023-07-13T05:00:39;27.90;68.00
67598;DHT22;62026;39.230;9.122;2023-07-13T05:03:05;27.90;68.10
67598;DHT22;62026;39.230;9.122;2023-07-13T05:05:31;28.00;68.30
67598;DHT22;62026;39.230;9.122;2023-07-13T05:07:58;28.00;68.50
67598;DHT22;62026;39.230;9.122;2023-07-13T05:10:23;28.00;68.40
67598;DHT22;62026;39.230;9.122;2023-07-13T05:12:50;28.00;68.30
67598;DHT22;62026;39.230;9.122;2023-07-13T05:15:16;28.10;68.40
67598;DHT22;62026;39.230;9.122;2023-07-13T05:17:49;28.10;68.20
67598;DHT22;62026;39.230;9.122;2023-07-13T05:20:16;28.10;67.90
67598;DHT22;62026;39.230;9.122;2023-07-13T05:22:44;28.10;67.30
67598;DHT22;62026;39.230;9.122;2023-07-13T05:25:13;28.10;66.60
67598;DHT22;62026;39.230;9.122;2023-07-13T05:27:39;28.20;66.10
67598;DHT22;62026;39.230;9.122;2023-07-13T05:30:06;28.20;65.40
67598;DHT22;62026;39.230;9.122;2023-07-13T05:32:36;28.20;64.90
67598;DHT22;62026;39.230;9.122;2023-07-13T05:35:02;28.30;64.90
67598;DHT22;62026;39.230;9.122;2023-07-13T05:37:28;28.30;64.60
67598;DHT22;62026;39.230;9.122;2023-07-13T05:39:54;28.40;64.60
67598;DHT22;62026;39.230;9.122;2023-07-13T05:42:20;28.40;64.50
67598;DHT22;62026;39.230;9.122;2023-07-13T05:44:46;28.50;64.20
67598;DHT22;62026;39.230;9.122;2023-07-13T05:47:12;28.50;64.20
67598;DHT22;62026;39.230;9.122;2023-07-13T05:49:40;28.60;64.20
67598;DHT22;62026;39.230;9.122;2023-07-13T05:52:07;28.60;64.20
67598;DHT22;62026;39.230;9.122;2023-07-13T05:54:33;28.70;64.00
67598;DHT22;62026;39.230;9.122;2023-07-13T05:56:59;28.80;63.60
67598;DHT22;62026;39.230;9.122;2023-07-13T05:59:25;28.90;63.50
67598;DHT22;62026;39.230;9.122;2023-07-13T06:01:51;29.00;63.00
67598;DHT22;62026;39.230;9.122;2023-07-13T06:04:18;29.10;62.70
67598;DHT22;62026;39.230;9.122;2023-07-13T06:06:45;29.20;62.20
67598;DHT22;62026;39.230;9.122;2023-07-13T06:09:11;29.30;62.00
67598;DHT22;62026;39.230;9.122;2023-07-13T06:11:37;29.40;61.60
67598;DHT22;62026;39.230;9.122;2023-07-13T06:14:03;29.50;61.50
67598;DHT22;62026;39.230;9.122;2023-07-13T06:16:29;29.60;60.30
67598;DHT22;62026;39.230;9.122;2023-07-13T06:18:55;29.60;60.00
67598;DHT22;62026;39.230;9.122;2023-07-13T06:21:23;29.70;59.70
67598;DHT22;62026;39.230;9.122;2023-07-13T06:23:50;29.70;59.00
67598;DHT22;62026;39.230;9.122;2023-07-13T06:26:18;29.90;58.50
67598;DHT22;62026;39.230;9.122;2023-07-13T06:28:45;30.00;58.00
67598;DHT22;62026;39.230;9.122;2023-07-13T06:31:12;30.20;57.80
67598;DHT22;62026;39.230;9.122;2023-07-13T06:33:39;30.20;57.30
67598;DHT22;62026;39.230;9.122;2023-07-13T06:36:06;30.30;56.70
67598;DHT22;62026;39.230;9.122;2023-07-13T06:38:33;30.40;56.30
67598;DHT22;62026;39.230;9.122;2023-07-13T06:41:00;30.50;56.00
67598;DHT22;62026;39.230;9.122;2023-07-13T06:43:26;30.60;55.40
67598;DHT22;62026;39.230;9.122;2023-07-13T06:45:55;30.70;55.10
67598;DHT22;62026;39.230;9.122;2023-07-13T06:48:22;30.80;54.90
67598;DHT22;62026;39.230;9.122;2023-07-13T06:50:49;30.90;54.70
67598;DHT22;62026;39.230;9.122;2023-07-13T06:53:17;31.10;54.20
67598;DHT22;62026;39.230;9.122;2023-07-13T06:55:45;31.30;53.50
67598;DHT22;62026;39.230;9.122;2023-07-13T06:58:12;31.40;52.90
67598;DHT22;62026;39.230;9.122;2023-07-13T07:00:38;31.60;52.30
67598;DHT22;62026;39.230;9.122;2023-07-13T07:03:05;31.70;52.10
67598;DHT22;62026;39.230;9.122;2023-07-13T07:05:32;31.60;51.80
67598;DHT22;62026;39.230;9.122;2023-07-13T07:07:59;31.70;51.40
67598;DHT22;62026;39.230;9.122;2023-07-13T07:10:25;31.80;51.00
67598;DHT22;62026;39.230;9.122;2023-07-13T07:12:51;32.00;50.50
67598;DHT22;62026;39.230;9.122;2023-07-13T07:15:18;32.20;49.80
67598;DHT22;62026;39.230;9.122;2023-07-13T07:17:44;32.30;49.50
67598;DHT22;62026;39.230;9.122;2023-07-13T07:20:10;32.40;49.80
67598;DHT22;62026;39.230;9.122;2023-07-13T07:22:37;32.50;49.50
67598;DHT22;62026;39.230;9.122;2023-07-13T07:25:03;32.50;49.10
67598;DHT22;62026;39.230;9.122;2023-07-13T07:27:29;32.50;48.90
67598;DHT22;62026;39.230;9.122;2023-07-13T07:29:55;32.50;48.60
67598;DHT22;62026;39.230;9.122;2023-07-13T07:32:23;32.70;48.30
67598;DHT22;62026;39.230;9.122;2023-07-13T07:34:49;32.80;47.90
67598;DHT22;62026;39.230;9.122;2023-07-13T07:37:15;33.00;48.20
67598;DHT22;62026;39.230;9.122;2023-07-13T07:39:43;33.10;48.40
67598;DHT22;62026;39.230;9.122;2023-07-13T07:42:09;33.20;48.20
67598;DHT22;62026;39.230;9.122;2023-07-13T07:44:35;33.20;48.30
67598;DHT22;62026;39.230;9.122;2023-07-13T07:47:01;33.30;48.10
67598;DHT22;62026;39.230;9.122;2023-07-13T07:49:27;33.50;48.00
67598;DHT22;62026;39.230;9.122;2023-07-13T07:51:53;33.50;47.60
67598;DHT22;62026;39.230;9.122;2023-07-13T07:54:19;33.40;47.20
67598;DHT22;62026;39.230;9.122;2023-07-13T07:56:45;33.50;46.90
67598;DHT22;62026;39.230;9.122;2023-07-13T07:59:11;33.70;45.90
67598;DHT22;62026;39.230;9.122;2023-07-13T08:01:37;33.90;45.50
67598;DHT22;62026;39.230;9.122;2023-07-13T08:04:03;34.00;46.20
67598;DHT22;62026;39.230;9.122;2023-07-13T08:06:31;33.80;46.90
67598;DHT22;62026;39.230;9.122;2023-07-13T08:08:59;33.50;47.50
67598;DHT22;62026;39.230;9.122;2023-07-13T08:11:27;33.40;47.80
67598;DHT22;62026;39.230;9.122;2023-07-13T08:13:53;33.40;47.90
67598;DHT22;62026;39.230;9.122;2023-07-13T08:16:19;33.50;47.80
67598;DHT22;62026;39.230;9.122;2023-07-13T08:18:45;33.50;47.90
67598;DHT22;62026;39.230;9.122;2023-07-13T08:21:11;33.40;48.00
67598;DHT22;62026;39.230;9.122;2023-07-13T08:23:37;33.50;47.90
67598;DHT22;62026;39.230;9.122;2023-07-13T08:26:04;33.90;47.50
67598;DHT22;62026;39.230;9.122;2023-07-13T08:28:31;34.20;47.00
67598;DHT22;62026;39.230;9.122;2023-07-13T08:31:06;34.40;46.80
67598;DHT22;62026;39.230;9.122;2023-07-13T08:33:35;34.50;46.60
67598;DHT22;62026;39.230;9.122;2023-07-13T08:36:02;34.40;46.80
67598;DHT22;62026;39.230;9.122;2023-07-13T08:38:29;34.30;46.80
67598;DHT22;62026;39.230;9.122;2023-07-13T08:40:56;34.30;47.00
67598;DHT22;62026;39.230;9.122;2023-07-13T08:43:26;34.40;46.70
67598;DHT22;62026;39.230;9.122;2023-07-13T08:46:09;34.50;46.80
67598;DHT22;62026;39.230;9.122;2023-07-13T08:48:43;34.40;47.20
67598;DHT22;62026;39.230;9.122;2023-07-13T08:51:50;34.50;47.40
67598;DHT22;62026;39.230;9.122;2023-07-13T08:54:32;34.50;47.70
67598;DHT22;62026;39.230;9.122;2023-07-13T08:57:10;34.70;49.00
67598;DHT22;62026;39.230;9.122;2023-07-13T08:59:42;34.90;48.80
67598;DHT22;62026;39.230;9.122;2023-07-13T09:02:33;35.00;48.40
67598;DHT22;62026;39.230;9.122;2023-07-13T09:05:18;35.00;48.50
67598;DHT22;62026;39.230;9.122;2023-07-13T09:10:44;35.20;48.30
67598;DHT22;62026;39.230;9.122;2023-07-13T09:16:10;35.80;47.40
67598;DHT22;62026;39.230;9.122;2023-07-13T09:18:49;35.90;47.20
67598;DHT22;62026;39.230;9.122;2023-07-13T09:21:25;36.10;46.60
67598;DHT22;62026;39.230;9.122;2023-07-13T09:27:17;35.90;47.50
67598;DHT22;62026;39.230;9.122;2023-07-13T09:32:57;34.80;50.00
67598;DHT22;62026;39.230;9.122;2023-07-13T09:35:27;34.60;49.90
67598;DHT22;62026;39.230;9.122;2023-07-13T09:38:01;34.50;50.50
67598;DHT22;62026;39.230;9.122;2023-07-13T09:44:10;34.30;50.80
67598;DHT22;62026;39.230;9.122;2023-07-13T09:46:47;34.30;51.20
67598;DHT22;62026;39.230;9.122;2023-07-13T09:49:22;34.30;51.00
67598;DHT22;62026;39.230;9.122;2023-07-13T09:51:58;34.30;50.90
67598;DHT22;62026;39.230;9.122;2023-07-13T09:54:26;34.20;51.20
67598;DHT22;62026;39.230;9.122;2023-07-13T09:56:59;34.20;51.30
67598;DHT22;62026;39.230;9.122;2023-07-13T09:59:34;34.10;51.60
67598;DHT22;62026;39.230;9.122;2023-07-13T10:02:33;34.20;51.40
67598;DHT22;62026;39.230;9.122;2023-07-13T10:05:05;34.20;51.20
67598;DHT22;62026;39.230;9.122;2023-07-13T10:07:40;34.20;51.30
67598;DHT22;62026;39.230;9.122;2023-07-13T10:10:23;34.20;51.50
67598;DHT22;62026;39.230;9.122;2023-07-13T10:12:50;34.00;52.00
67598;DHT22;62026;39.230;9.122;2023-07-13T10:15:20;33.90;52.00
67598;DHT22;62026;39.230;9.122;2023-07-13T10:17:48;33.90;52.40
67598;DHT22;62026;39.230;9.122;2023-07-13T10:20:16;34.00;52.40
67598;DHT22;62026;39.230;9.122;2023-07-13T10:22:58;34.00;52.40
67598;DHT22;62026;39.230;9.122;2023-07-13T10:25:34;34.10;52.70
67598;DHT22;62026;39.230;9.122;2023-07-13T10:28:26;34.10;53.00
67598;DHT22;62026;39.230;9.122;2023-07-13T10:30:56;33.90;53.30
67598;DHT22;62026;39.230;9.122;2023-07-13T10:33:25;33.90;54.20
67598;DHT22;62026;39.230;9.122;2023-07-13T10:39:03;34.10;54.30
67598;DHT22;62026;39.230;9.122;2023-07-13T10:41:34;34.00;54.60
67598;DHT22;62026;39.230;9.122;2023-07-13T10:44:15;33.90;54.40
67598;DHT22;62026;39.230;9.122;2023-07-13T10:46:45;34.00;54.50
67598;DHT22;62026;39.230;9.122;2023-07-13T10:49:12;34.10;54.50
67598;DHT22;62026;39.230;9.122;2023-07-13T10:51:39;34.10;54.40
67598;DHT22;62026;39.230;9.122;2023-07-13T10:56:52;33.90;55.40
67598;DHT22;62026;39.230;9.122;2023-07-13T10:59:33;33.90;54.80
67598;DHT22;62026;39.230;9.122;2023-07-13T11:02:15;34.00;54.30
67598;DHT22;62026;39.230;9.122;2023-07-13T11:04:49;34.00;55.00
67598;DHT22;62026;39.230;9.122;2023-07-13T11:07:26;33.90;55.10
67598;DHT22;62026;39.230;9.122;2023-07-13T11:10:04;33.80;55.00
67598;DHT22;62026;39.230;9.122;2023-07-13T11:12:51;33.80;55.60
67598;DHT22;62026;39.230;9.122;2023-07-13T11:15:44;33.80;56.40
67598;DHT22;62026;39.230;9.122;2023-07-13T11:18:22;33.80;55.70
67598;DHT22;62026;39.230;9.122;2023-07-13T11:20:51;33.80;56.50
67598;DHT22;62026;39.230;9.122;2023-07-13T11:23:21;33.80;56.90
67598;DHT22;62026;39.230;9.122;2023-07-13T11:25:53;33.80;57.20
67598;DHT22;62026;39.230;9.122;2023-07-13T11:28:23;33.60;57.80
67598;DHT22;62026;39.230;9.122;2023-07-13T11:36:19;33.30;59.30
67598;DHT22;62026;39.230;9.122;2023-07-13T11:38:59;33.20;59.10
67598;DHT22;62026;39.230;9.122;2023-07-13T11:41:35;33.20;59.20
67598;DHT22;62026;39.230;9.122;2023-07-13T11:44:12;33.00;59.60
67598;DHT22;62026;39.230;9.122;2023-07-13T11:46:45;33.00;60.10
67598;DHT22;62026;39.230;9.122;2023-07-13T11:49:21;33.10;60.70
67598;DHT22;62026;39.230;9.122;2023-07-13T11:51:49;33.00;61.00
67598;DHT22;62026;39.230;9.122;2023-07-13T11:54:28;32.90;60.80
67598;DHT22;62026;39.230;9.122;2023-07-13T11:57:06;32.80;60.60
67598;DHT22;62026;39.230;9.122;2023-07-13T11:59:45;32.90;61.30
67598;DHT22;62026;39.230;9.122;2023-07-13T12:02:33;33.00;61.40
67598;DHT22;62026;39.230;9.122;2023-07-13T12:05:05;33.00;60.00
67598;DHT22;62026;39.230;9.122;2023-07-13T12:07:36;32.90;60.90
67598;DHT22;62026;39.230;9.122;2023-07-13T12:10:26;32.80;61.80
67598;DHT22;62026;39.230;9.122;2023-07-13T12:13:03;32.70;62.10
67598;DHT22;62026;39.230;9.122;2023-07-13T12:15:36;32.60;62.90
67598;DHT22;62026;39.230;9.122;2023-07-13T12:18:14;32.70;62.40
67598;DHT22;62026;39.230;9.122;2023-07-13T12:20:57;32.70;62.70
67598;DHT22;62026;39.230;9.122;2023-07-13T12:23:32;32.60;62.90
67598;DHT22;62026;39.230;9.122;2023-07-13T12:26:03;32.70;63.50
67598;DHT22;62026;39.230;9.122;2023-07-13T12:28:37;32.70;62.10
67598;DHT22;62026;39.230;9.122;2023-07-13T12:31:37;32.70;63.00
67598;DHT22;62026;39.230;9.122;2023-07-13T12:34:10;32.90;62.90
67598;DHT22;62026;39.230;9.122;2023-07-13T12:37:12;32.80;63.40
67598;DHT22;62026;39.230;9.122;2023-07-13T12:39:45;32.80;63.50
67598;DHT22;62026;39.230;9.122;2023-07-13T12:42:26;32.80;63.80
67598;DHT22;62026;39.230;9.122;2023-07-13T12:45:19;32.60;64.30
67598;DHT22;62026;39.230;9.122;2023-07-13T12:48:04;32.40;64.20
67598;DHT22;62026;39.230;9.122;2023-07-13T12:50:41;32.40;63.80
67598;DHT22;62026;39.230;9.122;2023-07-13T12:53:19;32.40;63.20
67598;DHT22;62026;39.230;9.122;2023-07-13T12:55:56;32.40;63.90
67598;DHT22;62026;39.230;9.122;2023-07-13T12:58:30;32.40;63.30
67598;DHT22;62026;39.230;9.122;2023-07-13T13:01:02;32.30;63.20
67598;DHT22;62026;39.230;9.122;2023-07-13T13:04:02;32.30;63.50
67598;DHT22;62026;39.230;9.122;2023-07-13T13:06:32;32.40;62.00
67598;DHT22;62026;39.230;9.122;2023-07-13T13:09:01;32.30;62.70
67598;DHT22;62026;39.230;9.122;2023-07-13T13:11:31;32.30;63.10
67598;DHT22;62026;39.230;9.122;2023-07-13T13:13:57;32.30;63.40
67598;DHT22;62026;39.230;9.122;2023-07-13T13:18:54;32.30;63.20
67598;DHT22;62026;39.230;9.122;2023-07-13T13:21:23;32.40;63.50
67598;DHT22;62026;39.230;9.122;2023-07-13T13:23:51;32.30;63.20
67598;DHT22;62026;39.230;9.122;2023-07-13T13:26:19;32.20;62.90
67598;DHT22;62026;39.230;9.122;2023-07-13T13:28:47;32.20;61.80
67598;DHT22;62026;39.230;9.122;2023-07-13T13:31:14;32.20;62.00
67598;DHT22;62026;39.230;9.122;2023-07-13T13:33:44;32.30;61.50
67598;DHT22;62026;39.230;9.122;2023-07-13T13:36:19;32.40;60.90
67598;DHT22;62026;39.230;9.122;2023-07-13T13:38:48;32.60;60.40
67598;DHT22;62026;39.230;9.122;2023-07-13T13:41:15;32.60;59.60
67598;DHT22;62026;39.230;9.122;2023-07-13T13:43:43;32.60;59.60
67598;DHT22;62026;39.230;9.122;2023-07-13T13:46:24;32.60;59.20
67598;DHT22;62026;39.230;9.122;2023-07-13T13:48:51;32.60;59.50
67598;DHT22;62026;39.230;9.122;2023-07-13T13:51:21;32.70;58.80
67598;DHT22;62026;39.230;9.122;2023-07-13T13:53:49;32.60;58.50
67598;DHT22;62026;39.230;9.122;2023-07-13T13:56:18;32.60;56.80
67598;DHT22;62026;39.230;9.122;2023-07-13T13:58:45;32.60;57.20
67598;DHT22;62026;39.230;9.122;2023-07-13T14:01:21;32.60;58.40
67598;DHT22;62026;39.230;9.122;2023-07-13T14:03:50;32.60;59.00
67598;DHT22;62026;39.230;9.122;2023-07-13T14:06:19;32.60;60.10
67598;DHT22;62026;39.230;9.122;2023-07-13T14:08:45;32.70;60.60
67598;DHT22;62026;39.230;9.122;2023-07-13T14:11:15;32.70;60.30
67598;DHT22;62026;39.230;9.122;2023-07-13T14:13:52;32.80;59.80
67598;DHT22;62026;39.230;9.122;2023-07-13T14:16:26;32.80;59.80
67598;DHT22;62026;39.230;9.122;2023-07-13T14:18:55;32.60;60.50
67598;DHT22;62026;39.230;9.122;2023-07-13T14:21:25;32.60;61.20
67598;DHT22;62026;39.230;9.122;2023-07-13T14:23:53;32.60;59.60
67598;DHT22;62026;39.230;9.122;2023-07-13T14:26:24;32.70;58.30
67598;DHT22;62026;39.230;9.122;2023-07-13T14:28:54;32.70;56.70
67598;DHT22;62026;39.230;9.122;2023-07-13T14:31:23;32.70;56.40
67598;DHT22;62026;39.230;9.122;2023-07-13T14:33:50;32.80;55.70
67598;DHT22;62026;39.230;9.122;2023-07-13T14:39:16;33.20;56.20
67598;DHT22;62026;39.230;9.122;2023-07-13T14:41:43;33.20;55.20
67598;DHT22;62026;39.230;9.122;2023-07-13T14:44:13;33.20;55.50
67598;DHT22;62026;39.230;9.122;2023-07-13T14:46:41;33.30;53.70
67598;DHT22;62026;39.230;9.122;2023-07-13T14:49:28;33.30;53.60
67598;DHT22;62026;39.230;9.122;2023-07-13T14:51:58;33.50;53.90
67598;DHT22;62026;39.230;9.122;2023-07-13T14:54:27;33.60;54.30
67598;DHT22;62026;39.230;9.122;2023-07-13T14:56:53;33.60;55.00
67598;DHT22;62026;39.230;9.122;2023-07-13T14:59:19;33.50;55.10
67598;DHT22;62026;39.230;9.122;2023-07-13T15:01:46;33.60;54.60
67598;DHT22;62026;39.230;9.122;2023-07-13T15:04:14;33.60;54.70
67598;DHT22;62026;39.230;9.122;2023-07-13T15:06:57;33.50;55.00
67598;DHT22;62026;39.230;9.122;2023-07-13T15:09:27;33.50;55.10
67598;DHT22;62026;39.230;9.122;2023-07-13T15:11:55;33.40;56.00
67598;DHT22;62026;39.230;9.122;2023-07-13T15:14:22;33.50;56.30
67598;DHT22;62026;39.230;9.122;2023-07-13T15:16:53;33.60;56.30
67598;DHT22;62026;39.230;9.122;2023-07-13T15:19:21;33.60;57.20
67598;DHT22;62026;39.230;9.122;2023-07-13T15:21:49;33.70;57.30
67598;DHT22;62026;39.230;9.122;2023-07-13T15:24:17;33.80;57.70
67598;DHT22;62026;39.230;9.122;2023-07-13T15:26:43;33.90;57.40
67598;DHT22;62026;39.230;9.122;2023-07-13T15:29:12;34.00;56.70
67598;DHT22;62026;39.230;9.122;2023-07-13T15:31:38;34.10;55.80
67598;DHT22;62026;39.230;9.122;2023-07-13T15:34:11;34.10;54.30
67598;DHT22;62026;39.230;9.122;2023-07-13T15:36:39;34.30;50.70
67598;DHT22;62026;39.230;9.122;2023-07-13T15:39:06;34.60;48.20
67598;DHT22;62026;39.230;9.122;2023-07-13T15:41:33;34.80;47.20
67598;DHT22;62026;39.230;9.122;2023-07-13T15:44:00;34.70;47.10
67598;DHT22;62026;39.230;9.122;2023-07-13T15:46:38;34.70;46.60
67598;DHT22;62026;39.230;9.122;2023-07-13T15:49:09;34.70;46.00
67598;DHT22;62026;39.230;9.122;2023-07-13T15:51:35;34.70;45.70
67598;DHT22;62026;39.230;9.122;2023-07-13T15:54:03;34.90;45.30
67598;DHT22;62026;39.230;9.122;2023-07-13T15:56:35;34.80;45.30
67598;DHT22;62026;39.230;9.122;2023-07-13T15:59:03;34.60;44.90
67598;DHT22;62026;39.230;9.122;2023-07-13T16:01:30;34.60;45.00
67598;DHT22;62026;39.230;9.122;2023-07-13T16:03:58;34.80;44.30
67598;DHT22;62026;39.230;9.122;2023-07-13T16:06:28;34.70;44.50
67598;DHT22;62026;39.230;9.122;2023-07-13T16:08:58;34.70;44.30
67598;DHT22;62026;39.230;9.122;2023-07-13T16:11:33;34.80;43.90
67598;DHT22;62026;39.230;9.122;2023-07-13T16:14:02;34.80;43.70
67598;DHT22;62026;39.230;9.122;2023-07-13T16:16:30;34.80;43.30
67598;DHT22;62026;39.230;9.122;2023-07-13T16:19:01;34.70;44.10
67598;DHT22;62026;39.230;9.122;2023-07-13T16:21:49;34.80;44.80
67598;DHT22;62026;39.230;9.122;2023-07-13T16:24:20;34.70;44.30